Time;durP1;ratioP1;P1;durP2;ratioP2;P2;SDS_P1;SDS_P2;PMS_P1;PMS_P2;Temp;Humidity;BMP_temperature;BMP_pressure;BME280_temperature;BME280_humidity;BME280_pressure;Samples;Min_cycle;Max_cycle;Signal;HPM_P1;HPM_P2
2023/01/16 00:29:03;;;;;;;7.20;5.17;;;4.80;99.90;;;;;;5795489;24;20610;-82
2023/01/16 00:54:27;;;;;;;9.83;6.13;;;4.30;99.90;;;;;;5965787;23;20208;-85
2023/01/16 01:19:52;;;;;;;10.67;8.40;;;4.30;99.90;;;;;;6028459;23;20179;-83
2023/01/16 01:50:20;;;;;;;12.03;8.40;;;4.00;99.90;;;;;;6074832;23;20200;-83
2023/01/16 02:15:33;;;;;;;11.20;8.40;;;3.80;99.90;;;;;;5798696;23;20194;-83
2023/01/16 02:45:55;;;;;;;10.83;8.37;;;3.40;99.90;;;;;;5973516;23;20885;-84
2023/01/16 03:11:23;;;;;;;15.63;10.07;;;3.20;99.90;;;;;;5772304;24;20225;-84
2023/01/16 03:36:31;;;;;;;15.17;10.87;;;3.10;99.90;;;;;;5693258;24;20855;-84
2023/01/16 03:51:17;;;;;;;18.33;12.20;;;3.00;99.90;;;;;;6040442;22;20323;-84
2023/01/16 04:17:16;;;;;;;17.90;11.77;;;3.00;99.90;;;;;;6099887;22;20207;-84
2023/01/16 04:57:53;;;;;;;15.13;10.67;;;2.80;99.90;;;;;;6120298;22;20275;-82
2023/01/16 05:22:51;;;;;;;16.37;10.33;;;2.60;99.90;;;;;;6065456;22;20904;-83
2023/01/16 05:43:06;;;;;;;14.93;10.50;;;2.40;99.90;;;;;;5769192;24;20385;-83
2023/01/16 06:18:59;;;;;;;15.50;10.13;;;2.30;99.90;;;;;;6082009;22;20156;-83
2023/01/16 06:44:22;;;;;;;15.03;9.97;;;2.40;99.90;;;;;;6118424;23;20243;-84
2023/01/16 07:40:08;;;;;;;13.17;8.57;;;2.70;99.90;;;;;;5787396;24;20487;-82
2023/01/16 08:05:27;;;;;;;9.70;7.73;;;3.10;99.90;;;;;;5906167;23;20271;-83
2023/01/16 08:25:40;;;;;;;12.43;8.57;;;3.20;99.90;;;;;;5795829;24;20181;-81
2023/01/16 09:15:48;;;;;;;10.93;8.33;;;4.00;99.90;;;;;;5876716;23;20673;-83
2023/01/16 09:46:15;;;;;;;12.47;9.37;;;4.60;95.30;;;;;;5790313;24;20557;-83
2023/01/16 10:02:04;;;;;;;10.67;7.40;;;4.90;96.80;;;;;;5721994;24;20592;-82
2023/01/16 10:26:54;;;;;;;11.40;8.90;;;5.00;95.60;;;;;;5751025;24;20433;-80
2023/01/16 12:39:03;;;;;;;23.87;16.70;;;4.50;99.90;;;;;;5882219;24;20493;-82
2023/01/16 13:09:27;;;;;;;23.80;16.07;;;4.00;99.90;;;;;;5782815;24;20555;-84
2023/01/16 13:40:03;;;;;;;28.63;18.10;;;4.20;99.90;;;;;;5785806;24;20244;-82
2023/01/16 15:31:20;;;;;;;45.07;26.43;;;3.40;99.90;;;;;;5845775;24;20470;-83
2023/01/16 15:56:59;;;;;;;44.10;26.33;;;3.50;99.90;;;;;;5758627;24;20208;-83
2023/01/16 16:52:37;;;;;;;41.40;26.17;;;3.70;99.90;;;;;;5880139;23;20260;-85
2023/01/16 17:18:06;;;;;;;38.40;23.43;;;3.90;99.90;;;;;;5914567;23;20202;-83
2023/01/16 17:38:31;;;;;;;32.17;21.73;;;4.10;99.90;;;;;;5895136;23;20252;-81
2023/01/16 19:09:39;;;;;;;21.73;14.00;;;4.60;99.90;;;;;;5900347;24;20700;-82
2023/01/16 19:30:02;;;;;;;21.17;14.00;;;4.70;99.90;;;;;;5954340;23;20177;-85
2023/01/16 19:49:36;;;;;;;20.60;14.73;;;4.70;99.90;;;;;;6061993;23;20158;-83
2023/01/16 20:05:32;;;;;;;18.70;14.60;;;4.70;99.90;;;;;;5908498;24;20216;-84
2023/01/16 21:00:48;;;;;;;22.53;14.20;;;4.80;99.90;;;;;;5741554;24;20663;-82
2023/01/16 21:26:12;;;;;;;21.17;14.63;;;4.70;99.90;;;;;;5575955;25;20688;-82
2023/01/16 21:46:51;;;;;;;28.00;17.83;;;4.70;99.90;;;;;;5595632;25;20193;-80
2023/01/16 22:22:24;;;;;;;29.73;19.30;;;4.50;99.90;;;;;;5647912;24;20185;-84
2023/01/16 23:07:43;;;;;;;22.63;15.33;;;4.10;99.90;;;;;;5884510;23;20321;-83
2023/01/16 23:28:15;;;;;;;18.13;12.57;;;4.00;99.90;;;;;;6034928;23;20179;-84
2023/01/16 23:38:24;;;;;;;14.50;11.70;;;3.90;99.90;;;;;;6174233;23;20155;-83
